createdAt,value
2017-07-02T00:01:16.950Z,12.47
2017-07-02T00:03:45.239Z,11.60
2017-07-02T00:06:14.291Z,13.00
2017-07-02T00:08:43.775Z,11.70
2017-07-02T00:11:13.421Z,10.90
2017-07-02T00:13:41.997Z,11.40
2017-07-02T00:16:10.373Z,10.57
2017-07-02T00:18:38.671Z,11.00
2017-07-02T00:21:07.747Z,10.60
2017-07-02T00:23:36.080Z,10.90
2017-07-02T00:26:05.123Z,11.93
2017-07-02T00:28:34.182Z,12.50
2017-07-02T00:31:02.508Z,9.70
2017-07-02T00:33:30.792Z,12.40
2017-07-02T00:36:00.210Z,11.53
2017-07-02T00:38:28.563Z,12.77
2017-07-02T00:40:56.861Z,12.47
2017-07-02T00:43:25.147Z,12.30
2017-07-02T00:45:55.009Z,11.50
2017-07-02T00:48:23.288Z,13.77
2017-07-02T00:50:51.574Z,12.67
2017-07-02T00:53:21.242Z,12.20
2017-07-02T00:55:50.171Z,13.70
2017-07-02T00:58:18.455Z,12.47
2017-07-02T01:00:47.578Z,11.87
2017-07-02T01:03:17.210Z,11.27
2017-07-02T01:05:45.762Z,11.60
2017-07-02T01:08:14.498Z,11.57
2017-07-02T01:10:43.923Z,11.83
2017-07-02T01:13:12.220Z,12.20
2017-07-02T01:15:40.575Z,11.53
2017-07-02T01:18:08.873Z,11.73
2017-07-02T01:20:37.191Z,12.10
2017-07-02T01:23:05.532Z,15.50
2017-07-02T01:25:34.574Z,16.33
2017-07-02T01:28:03.626Z,16.33
2017-07-02T01:30:31.955Z,17.57
2017-07-02T01:33:01.559Z,15.00
2017-07-02T01:35:29.839Z,15.17
2017-07-02T01:37:58.207Z,16.57
2017-07-02T01:40:26.500Z,15.10
2017-07-02T01:42:55.582Z,14.93
2017-07-02T01:45:25.537Z,14.47
2017-07-02T01:47:53.717Z,14.03
2017-07-02T01:50:21.999Z,12.30
2017-07-02T01:52:50.343Z,14.27
2017-07-02T01:55:18.670Z,14.33
2017-07-02T01:57:46.950Z,13.87
2017-07-02T02:00:15.291Z,16.47
2017-07-02T02:02:56.338Z,15.77
2017-07-02T02:05:25.502Z,14.50
2017-07-02T02:07:54.595Z,14.53
2017-07-02T02:10:23.645Z,12.60
2017-07-02T02:12:51.998Z,13.57
2017-07-02T02:15:21.422Z,14.90
2017-07-02T02:17:51.062Z,14.63
2017-07-02T02:20:20.279Z,13.40
2017-07-02T02:22:49.326Z,13.80
2017-07-02T02:25:18.374Z,15.23
2017-07-02T02:27:47.477Z,14.83
2017-07-02T02:30:15.780Z,12.30
2017-07-02T02:32:44.127Z,13.70
2017-07-02T02:35:12.496Z,12.90
2017-07-02T02:37:41.187Z,12.90
2017-07-02T02:40:09.933Z,13.83
2017-07-02T02:42:38.675Z,12.67
2017-07-02T02:45:06.962Z,12.30
2017-07-02T02:47:36.622Z,14.27
2017-07-02T02:50:05.593Z,12.77
2017-07-02T02:52:35.002Z,14.20
2017-07-02T02:55:03.290Z,12.07
2017-07-02T02:57:32.986Z,12.73
2017-07-02T03:00:01.551Z,12.67
2017-07-02T03:02:29.834Z,13.63
2017-07-02T03:04:58.207Z,11.53
2017-07-02T03:07:27.891Z,12.30
2017-07-02T03:09:57.564Z,15.40
2017-07-02T03:12:27.270Z,13.27
2017-07-02T03:14:55.427Z,12.73
2017-07-02T03:17:23.744Z,13.37
2017-07-02T03:19:52.422Z,14.07
2017-07-02T03:22:21.846Z,13.57
2017-07-02T03:24:50.126Z,14.73
2017-07-02T03:27:19.820Z,13.87
2017-07-02T03:29:48.754Z,13.77
2017-07-02T03:32:17.038Z,13.23
2017-07-02T03:34:46.046Z,11.90
2017-07-02T03:37:15.100Z,13.37
2017-07-02T03:39:44.734Z,11.47
2017-07-02T03:42:13.731Z,12.77
2017-07-02T03:44:42.034Z,13.30
2017-07-02T03:47:11.688Z,12.10
2017-07-02T03:49:41.178Z,14.13
2017-07-02T03:52:10.839Z,13.17
2017-07-02T03:54:39.427Z,11.77
2017-07-02T03:57:08.101Z,13.43
2017-07-02T03:59:36.392Z,10.73
2017-07-02T04:02:05.446Z,12.67
2017-07-02T04:04:33.782Z,11.10
2017-07-02T04:07:02.830Z,12.10
2017-07-02T04:09:32.255Z,11.00
2017-07-02T04:12:00.922Z,11.33
2017-07-02T04:14:30.712Z,11.53
2017-07-02T04:17:00.346Z,10.87
2017-07-02T04:19:29.706Z,11.00
2017-07-02T04:21:59.127Z,12.30
2017-07-02T04:24:27.431Z,10.87
2017-07-02T04:26:55.815Z,12.23
2017-07-02T04:29:25.458Z,11.20
2017-07-02T04:31:55.151Z,11.70
2017-07-02T04:34:23.756Z,11.17
2017-07-02T04:36:53.175Z,11.83
2017-07-02T04:39:21.459Z,11.37
2017-07-02T04:41:49.786Z,10.97
2017-07-02T04:44:18.471Z,12.50
2017-07-02T04:46:46.755Z,11.60
2017-07-02T04:49:15.856Z,11.53
2017-07-02T04:51:44.139Z,12.17
2017-07-02T04:54:13.774Z,10.10
2017-07-02T04:56:42.408Z,10.43
2017-07-02T04:59:11.465Z,9.57
2017-07-02T05:01:40.911Z,10.40
2017-07-02T05:04:09.271Z,9.60
2017-07-02T05:06:38.709Z,9.87
2017-07-02T05:09:08.364Z,8.37
2017-07-02T05:11:36.966Z,7.70
2017-07-02T05:14:05.243Z,8.10
2017-07-02T05:16:33.524Z,9.43
2017-07-02T05:19:03.358Z,8.20
2017-07-02T05:21:31.641Z,8.80
2017-07-02T05:23:59.919Z,8.00
2017-07-02T05:26:28.286Z,6.70
2017-07-02T05:28:57.711Z,7.80
2017-07-02T05:31:26.012Z,6.90
2017-07-02T05:33:54.362Z,7.70
2017-07-02T05:36:22.643Z,7.17
2017-07-02T05:38:50.922Z,8.30
2017-07-02T05:41:19.274Z,6.93
2017-07-02T05:43:47.547Z,8.03
2017-07-02T05:46:17.174Z,6.70
2017-07-02T05:48:46.786Z,7.90
2017-07-02T05:51:15.458Z,7.00
2017-07-02T05:53:43.742Z,7.03
2017-07-02T05:56:12.068Z,7.47
2017-07-02T05:58:40.755Z,8.10
2017-07-02T06:01:09.049Z,7.53
2017-07-02T06:03:37.408Z,6.37
2017-07-02T06:06:05.683Z,8.23
2017-07-02T06:08:33.967Z,9.10
2017-07-02T06:11:03.438Z,7.23
2017-07-02T06:13:32.487Z,7.93
2017-07-02T06:16:00.770Z,9.53
2017-07-02T06:18:30.227Z,9.30
2017-07-02T06:20:58.518Z,9.17
2017-07-02T06:23:26.816Z,7.87
2017-07-02T06:25:55.695Z,9.03
2017-07-02T06:28:24.370Z,9.30
2017-07-02T06:30:53.423Z,8.47
2017-07-02T06:33:23.093Z,9.60
2017-07-02T06:35:51.650Z,9.00
2017-07-02T06:38:19.931Z,8.17
2017-07-02T06:40:49.035Z,8.30
2017-07-02T06:43:17.314Z,9.40
2017-07-02T06:45:45.595Z,8.90
2017-07-02T06:48:14.043Z,8.77
2017-07-02T06:50:43.219Z,9.23
2017-07-02T06:53:11.530Z,8.83
2017-07-02T06:55:39.874Z,9.30
2017-07-02T06:58:08.180Z,8.47
2017-07-02T07:00:37.976Z,7.73
2017-07-02T07:03:07.066Z,9.37
2017-07-02T07:05:36.486Z,8.17
2017-07-02T07:08:04.763Z,8.30
2017-07-02T07:10:33.378Z,8.83
2017-07-02T07:13:02.062Z,9.70
2017-07-02T07:15:30.339Z,8.90
2017-07-02T07:17:58.696Z,8.63
2017-07-02T07:20:26.989Z,9.77
2017-07-02T07:22:56.788Z,8.60
2017-07-02T07:25:25.111Z,8.93
2017-07-02T07:27:53.399Z,9.83
2017-07-02T07:30:21.675Z,9.47
2017-07-02T07:32:50.002Z,10.53
2017-07-02T07:35:19.415Z,9.50
2017-07-02T07:37:47.699Z,10.30
2017-07-02T07:40:16.026Z,10.30
2017-07-02T07:42:44.315Z,10.63
2017-07-02T07:45:12.607Z,10.17
2017-07-02T07:47:40.951Z,11.17
2017-07-02T07:50:09.255Z,10.33
2017-07-02T07:52:39.609Z,11.70
2017-07-02T07:55:08.359Z,10.97
2017-07-02T07:57:37.453Z,11.30
2017-07-02T08:00:06.134Z,10.37
2017-07-02T08:02:34.478Z,9.43
2017-07-02T08:05:04.114Z,11.03
2017-07-02T08:07:32.668Z,11.23
2017-07-02T08:10:00.998Z,13.67
2017-07-02T08:12:29.279Z,13.53
2017-07-02T08:14:57.975Z,14.77
2017-07-02T08:17:26.326Z,14.57
2017-07-02T08:19:55.376Z,14.10
2017-07-02T08:22:23.666Z,15.13
2017-07-02T08:24:52.011Z,15.00
2017-07-02T08:27:20.290Z,14.47
2017-07-02T08:29:48.575Z,15.70
2017-07-02T08:32:18.055Z,14.70
2017-07-02T08:34:46.739Z,15.53
2017-07-02T08:37:16.370Z,14.70
2017-07-02T08:39:45.363Z,15.63
2017-07-02T08:42:14.418Z,14.50
2017-07-02T08:44:42.711Z,15.27
2017-07-02T08:47:12.415Z,14.70
2017-07-02T08:49:40.582Z,16.03
2017-07-02T08:52:08.880Z,15.43
2017-07-02T08:54:37.241Z,17.17
2017-07-02T08:57:07.030Z,15.40
2017-07-02T08:59:36.102Z,18.07
2017-07-02T09:02:05.579Z,19.20
2017-07-02T09:04:33.984Z,18.83
2017-07-02T09:07:02.271Z,18.97
2017-07-02T09:09:30.624Z,18.10
2017-07-02T09:12:00.422Z,18.93
2017-07-02T09:14:28.722Z,17.70
2017-07-02T09:16:58.430Z,17.50
2017-07-02T09:19:26.994Z,16.47
2017-07-02T09:21:56.054Z,17.30
2017-07-02T09:24:24.382Z,16.80
2017-07-02T09:26:52.666Z,18.87
2017-07-02T09:29:20.950Z,18.50
2017-07-02T09:31:50.876Z,20.77
2017-07-02T09:34:20.671Z,22.67
2017-07-02T09:36:50.334Z,20.40
2017-07-02T09:39:19.079Z,20.10
2017-07-02T09:41:47.362Z,21.57
2017-07-02T09:44:15.659Z,18.97
2017-07-02T09:46:44.772Z,19.77
2017-07-02T09:49:13.825Z,17.93
2017-07-02T09:51:42.157Z,19.53
2017-07-02T09:54:10.471Z,20.33
2017-07-02T09:56:38.775Z,19.97
2017-07-02T09:59:09.970Z,23.50
2017-07-02T10:01:39.074Z,21.60
2017-07-02T10:04:08.157Z,21.90
2017-07-02T10:06:36.475Z,21.57
2017-07-02T10:09:06.302Z,20.53
2017-07-02T10:11:34.587Z,21.37
2017-07-02T10:14:04.251Z,22.10
2017-07-02T10:16:32.779Z,19.27
2017-07-02T10:19:01.827Z,18.90
2017-07-02T10:21:30.878Z,19.40
2017-07-02T10:23:59.991Z,18.87
2017-07-02T10:26:29.410Z,19.57
2017-07-02T10:28:59.043Z,17.63
2017-07-02T10:31:28.402Z,17.40
2017-07-02T10:33:57.837Z,18.50
2017-07-02T10:36:26.125Z,18.77
2017-07-02T10:38:55.608Z,18.43
2017-07-02T10:41:25.238Z,17.63
2017-07-02T10:43:53.794Z,19.17
2017-07-02T10:46:22.142Z,17.50
2017-07-02T10:48:51.930Z,19.20
2017-07-02T10:51:21.570Z,18.87
2017-07-02T10:53:50.319Z,18.83
2017-07-02T10:56:18.606Z,19.33
2017-07-02T10:58:46.887Z,18.23
2017-07-02T11:01:15.239Z,18.87
2017-07-02T11:03:43.542Z,18.57
2017-07-02T11:06:13.348Z,19.37
2017-07-02T11:08:43.208Z,19.80
2017-07-02T11:11:11.499Z,20.17
2017-07-02T11:13:41.136Z,19.70
2017-07-02T11:16:10.495Z,20.90
2017-07-02T11:18:39.180Z,25.80
2017-07-02T11:21:08.607Z,24.20
2017-07-02T11:23:37.337Z,21.77
2017-07-02T11:26:06.966Z,22.10
2017-07-02T11:28:35.894Z,22.13
2017-07-02T11:31:05.751Z,24.37
2017-07-02T11:33:34.036Z,24.10
2017-07-02T11:36:03.083Z,26.87
2017-07-02T11:38:32.178Z,27.00
2017-07-02T11:41:00.460Z,21.37
2017-07-02T11:43:29.518Z,20.73
2017-07-02T11:45:59.358Z,22.00
2017-07-02T11:48:27.650Z,23.10
2017-07-02T11:50:57.074Z,25.00
2017-07-02T11:53:25.668Z,26.70
2017-07-02T11:55:55.460Z,28.70
2017-07-02T11:58:25.125Z,27.80
2017-07-02T12:00:54.366Z,27.10
2017-07-02T12:03:23.418Z,33.10
2017-07-02T12:05:51.698Z,31.17
2017-07-02T12:08:21.544Z,36.20
2017-07-02T12:10:49.832Z,38.10
2017-07-02T12:13:19.623Z,32.73
2017-07-02T12:15:47.970Z,33.20
2017-07-02T12:18:16.254Z,27.70
2017-07-02T12:20:44.533Z,26.27
2017-07-02T12:23:14.270Z,25.50
2017-07-02T12:25:42.439Z,25.23
2017-07-02T12:28:10.726Z,24.53
2017-07-02T12:30:39.081Z,26.43
2017-07-02T12:33:07.367Z,24.70
2017-07-02T12:35:37.164Z,24.17
2017-07-02T12:38:05.529Z,23.27
2017-07-02T12:40:34.950Z,23.97
2017-07-02T12:43:03.254Z,21.47
2017-07-02T12:45:32.383Z,15.17
2017-07-02T12:48:01.795Z,14.10
2017-07-02T12:50:31.594Z,13.30
2017-07-02T12:52:59.950Z,15.13
2017-07-02T12:55:28.231Z,15.50
2017-07-02T12:57:56.515Z,12.33
2017-07-02T13:00:26.013Z,13.07
2017-07-02T13:02:55.148Z,13.83
2017-07-02T13:05:24.201Z,12.93
2017-07-02T13:07:52.527Z,13.37
2017-07-02T13:10:22.474Z,11.53
2017-07-02T13:12:50.763Z,12.50
2017-07-02T13:15:19.090Z,12.40
2017-07-02T13:17:47.375Z,11.00
2017-07-02T13:20:15.658Z,10.87
2017-07-02T13:22:44.963Z,10.47
2017-07-02T13:25:14.598Z,11.93
2017-07-02T13:27:43.156Z,13.50
2017-07-02T13:30:12.290Z,12.00
2017-07-02T13:32:41.359Z,11.83
2017-07-02T13:35:09.663Z,11.13
2017-07-02T13:37:38.652Z,10.97
2017-07-02T13:40:07.757Z,11.47
2017-07-02T13:42:36.044Z,11.13
2017-07-02T13:45:04.766Z,10.27
2017-07-02T13:47:34.390Z,9.47
2017-07-02T13:50:02.541Z,8.00
2017-07-02T13:52:30.858Z,8.17
2017-07-02T13:55:00.639Z,7.87
2017-07-02T13:57:28.938Z,8.50
2017-07-02T13:59:57.375Z,8.43
2017-07-02T14:02:25.647Z,9.87
2017-07-02T14:04:53.939Z,9.70
2017-07-02T14:07:24.115Z,10.23
2017-07-02T14:09:52.799Z,11.07
2017-07-02T14:12:21.082Z,12.17
2017-07-02T14:14:49.430Z,11.80
2017-07-02T14:17:17.750Z,12.13
2017-07-02T14:19:46.007Z,11.60
2017-07-02T14:22:15.476Z,11.33
2017-07-02T14:24:43.767Z,11.67
2017-07-02T14:27:13.418Z,12.20
2017-07-02T14:29:42.562Z,11.77
2017-07-02T14:32:10.860Z,12.00
2017-07-02T14:34:39.175Z,10.77
2017-07-02T14:37:08.876Z,11.00
2017-07-02T14:39:37.034Z,12.63
2017-07-02T14:42:06.677Z,14.40
2017-07-02T14:44:35.606Z,12.37
2017-07-02T14:47:04.659Z,12.00
2017-07-02T14:49:33.707Z,11.73
2017-07-02T14:52:02.327Z,12.13
2017-07-02T14:54:31.016Z,12.10
2017-07-02T14:56:59.302Z,13.10
2017-07-02T14:59:27.654Z,12.47
2017-07-02T15:01:57.479Z,11.67
2017-07-02T15:04:25.769Z,12.13
2017-07-02T15:06:55.032Z,12.20
2017-07-02T15:09:24.459Z,9.33
2017-07-02T15:11:54.086Z,7.10
2017-07-02T15:14:22.297Z,7.47
2017-07-02T15:16:50.969Z,6.53
2017-07-02T15:19:20.760Z,5.50
2017-07-02T15:21:50.710Z,3.90
2017-07-02T15:24:20.215Z,3.37
2017-07-02T15:26:49.715Z,3.30
2017-07-02T15:29:19.283Z,3.10
2017-07-02T15:31:47.827Z,3.27
2017-07-02T15:34:16.884Z,3.23
2017-07-02T15:36:45.223Z,2.67
2017-07-02T15:39:13.642Z,2.87
2017-07-02T15:41:43.123Z,3.00
2017-07-02T15:44:11.487Z,2.90
2017-07-02T15:46:39.798Z,2.60
2017-07-02T15:49:08.494Z,2.63
2017-07-02T15:51:37.584Z,3.13
2017-07-02T15:54:06.627Z,3.20
2017-07-02T15:56:34.958Z,2.50
2017-07-02T15:59:04.794Z,2.87
2017-07-02T16:01:33.078Z,2.50
2017-07-02T16:04:02.895Z,2.77
2017-07-02T16:06:32.591Z,2.70
2017-07-02T16:09:01.191Z,2.80
2017-07-02T16:11:30.227Z,2.40
2017-07-02T16:13:59.332Z,3.13
2017-07-02T16:16:28.742Z,2.47
2017-07-02T16:18:57.041Z,2.90
2017-07-02T16:21:25.359Z,2.40
2017-07-02T16:23:53.635Z,2.63
2017-07-02T16:26:21.906Z,2.30
2017-07-02T16:28:51.390Z,2.40
2017-07-02T16:31:20.487Z,2.60
2017-07-02T16:33:49.546Z,2.60
2017-07-02T16:36:17.863Z,3.00
2017-07-02T16:38:46.500Z,2.83
2017-07-02T16:41:14.843Z,2.43
2017-07-02T16:43:43.243Z,2.70
2017-07-02T16:46:13.039Z,2.10
2017-07-02T16:48:42.091Z,2.57
2017-07-02T16:51:11.336Z,2.60
2017-07-02T16:53:39.631Z,2.50
2017-07-02T16:56:08.306Z,2.37
2017-07-02T16:58:36.934Z,2.30
2017-07-02T17:01:05.263Z,1.77
2017-07-02T17:03:34.667Z,3.00
2017-07-02T17:06:03.756Z,2.00
2017-07-02T17:08:33.174Z,1.80
2017-07-02T17:11:01.451Z,2.07
2017-07-02T17:13:29.798Z,2.13
2017-07-02T17:15:58.091Z,2.50
2017-07-02T17:18:26.375Z,2.33
2017-07-02T17:20:55.831Z,2.90
2017-07-02T17:23:24.113Z,2.63
2017-07-02T17:25:55.524Z,3.37
2017-07-02T17:28:24.144Z,3.03
2017-07-02T17:30:52.813Z,3.00
2017-07-02T17:33:21.090Z,2.70
2017-07-02T17:35:50.770Z,2.80
2017-07-02T17:38:19.728Z,2.50
2017-07-02T17:40:48.396Z,3.27
2017-07-02T17:43:18.251Z,2.47
2017-07-02T17:45:46.821Z,2.60
2017-07-02T17:48:15.115Z,2.70
2017-07-02T17:50:43.835Z,2.30
2017-07-02T17:53:12.897Z,2.60
2017-07-02T17:55:41.182Z,2.17
2017-07-02T17:58:09.551Z,2.40
2017-07-02T18:00:37.860Z,2.33
2017-07-02T18:03:06.135Z,2.80
2017-07-02T18:05:35.817Z,2.10
2017-07-02T18:08:04.364Z,2.10
2017-07-02T18:10:32.645Z,2.10
2017-07-02T18:13:02.590Z,2.83
2017-07-02T18:15:31.139Z,2.10
2017-07-02T18:18:00.179Z,1.97
2017-07-02T18:20:28.786Z,2.00
2017-07-02T18:22:58.590Z,2.17
2017-07-02T18:25:26.901Z,2.00
2017-07-02T18:27:55.222Z,2.27
2017-07-02T18:30:24.518Z,1.90
2017-07-02T18:32:53.087Z,1.87
2017-07-02T18:35:21.422Z,2.27
2017-07-02T18:37:51.060Z,2.10
2017-07-02T18:40:19.228Z,1.93
2017-07-02T18:42:47.562Z,2.43
2017-07-02T18:45:15.863Z,2.30
2017-07-02T18:47:44.171Z,2.50
2017-07-02T18:50:13.898Z,2.77
2017-07-02T18:52:42.488Z,2.53
2017-07-02T18:55:10.789Z,2.37
2017-07-02T18:57:39.927Z,2.40
2017-07-02T19:00:08.260Z,2.00
2017-07-02T19:02:37.309Z,2.30
2017-07-02T19:05:06.437Z,1.90
2017-07-02T19:07:34.715Z,1.90
2017-07-02T19:10:03.003Z,1.90
2017-07-02T19:12:33.350Z,1.80
2017-07-02T19:15:01.623Z,1.90
2017-07-02T19:17:29.907Z,2.30
2017-07-02T19:19:58.996Z,2.20
2017-07-02T19:22:28.629Z,2.07
2017-07-02T19:24:57.551Z,2.40
2017-07-02T19:27:25.884Z,2.23
2017-07-02T19:29:54.158Z,2.20
2017-07-02T19:32:23.563Z,1.83
2017-07-02T19:34:53.463Z,2.20
2017-07-02T19:37:21.731Z,2.33
2017-07-02T19:39:50.011Z,2.60
2017-07-02T19:42:19.121Z,2.47
2017-07-02T19:44:48.160Z,1.93
2017-07-02T19:47:16.435Z,1.90
2017-07-02T19:49:46.636Z,2.97
2017-07-02T19:52:16.418Z,2.23
2017-07-02T19:54:44.696Z,2.07
2017-07-02T19:57:13.794Z,2.27
2017-07-02T19:59:42.852Z,2.37
2017-07-02T20:02:11.162Z,2.30
2017-07-02T20:04:39.815Z,2.10
2017-07-02T20:07:09.645Z,2.53
2017-07-02T20:09:39.460Z,2.30
2017-07-02T20:12:08.068Z,2.83
2017-07-02T20:14:37.692Z,2.17
2017-07-02T20:17:06.246Z,3.00
2017-07-02T20:19:35.355Z,2.60
2017-07-02T20:22:03.627Z,2.33
2017-07-02T20:24:31.902Z,2.70
2017-07-02T20:27:00.222Z,2.90
2017-07-02T20:29:28.516Z,2.60
2017-07-02T20:31:56.821Z,2.50
2017-07-02T20:34:26.720Z,3.20
2017-07-02T20:36:54.999Z,2.20
2017-07-02T20:39:23.278Z,2.27
2017-07-02T20:41:51.597Z,4.00
2017-07-02T20:44:21.015Z,3.10
2017-07-02T20:46:49.686Z,3.20
2017-07-02T20:49:18.014Z,2.90
2017-07-02T20:51:47.434Z,2.80
2017-07-02T20:54:15.716Z,2.70
2017-07-02T20:56:44.328Z,2.20
2017-07-02T20:59:13.374Z,2.80
2017-07-02T21:01:41.683Z,2.80
2017-07-02T21:04:10.794Z,3.00
2017-07-02T21:06:39.866Z,2.80
2017-07-02T21:09:08.168Z,3.37
2017-07-02T21:11:36.845Z,2.40
2017-07-02T21:14:05.886Z,2.47
2017-07-02T21:16:34.167Z,3.37
2017-07-02T21:19:02.491Z,2.80
2017-07-02T21:21:30.771Z,2.20
2017-07-02T21:23:59.067Z,2.87
2017-07-02T21:26:27.550Z,2.50
2017-07-02T21:28:55.828Z,3.20
2017-07-02T21:31:25.243Z,4.17
2017-07-02T21:33:53.599Z,3.30
2017-07-02T21:36:21.886Z,3.93
2017-07-02T21:38:50.161Z,2.70
2017-07-02T21:41:18.478Z,3.03
2017-07-02T21:43:47.153Z,3.10
2017-07-02T21:46:15.428Z,3.27
2017-07-02T21:48:43.784Z,2.60
2017-07-02T21:51:12.091Z,3.93
2017-07-02T21:53:40.383Z,3.67
2017-07-02T21:56:10.067Z,3.57
2017-07-02T21:58:38.652Z,2.67
2017-07-02T22:01:06.932Z,3.00
2017-07-02T22:03:35.251Z,3.80
2017-07-02T22:06:04.296Z,3.10
2017-07-02T22:08:32.567Z,3.13
2017-07-02T22:11:00.895Z,3.03
2017-07-02T22:13:29.175Z,2.27
2017-07-02T22:15:57.482Z,3.60
2017-07-02T22:18:27.172Z,3.03
2017-07-02T22:20:56.693Z,2.70
2017-07-02T22:23:25.248Z,3.80
2017-07-02T22:25:53.907Z,2.40
2017-07-02T22:28:23.318Z,3.43
2017-07-02T22:30:51.598Z,3.77
2017-07-02T22:33:19.922Z,3.20
2017-07-02T22:35:49.699Z,3.80
2017-07-02T22:38:17.975Z,3.10
2017-07-02T22:40:46.650Z,3.07
2017-07-02T22:43:16.071Z,4.27
2017-07-02T22:45:44.351Z,3.23
2017-07-02T22:48:12.966Z,3.23
2017-07-02T22:50:42.762Z,3.03
2017-07-02T22:53:11.828Z,4.30
2017-07-02T22:55:41.315Z,4.43
2017-07-02T22:58:09.600Z,4.43
2017-07-02T23:00:39.405Z,4.03
2017-07-02T23:03:07.739Z,3.97
2017-07-02T23:05:36.011Z,3.10
2017-07-02T23:08:04.287Z,3.57
2017-07-02T23:10:33.402Z,3.30
2017-07-02T23:13:01.670Z,3.10
2017-07-02T23:15:29.947Z,3.53
2017-07-02T23:17:58.281Z,3.80
2017-07-02T23:20:26.568Z,3.87
2017-07-02T23:22:54.843Z,3.77
2017-07-02T23:25:24.075Z,3.77
2017-07-02T23:27:52.344Z,3.87
2017-07-02T23:30:20.614Z,4.50
2017-07-02T23:32:49.540Z,3.83
2017-07-02T23:35:18.951Z,4.13
2017-07-02T23:37:47.227Z,4.07
2017-07-02T23:40:17.171Z,4.30
2017-07-02T23:42:46.876Z,4.03
2017-07-02T23:45:16.506Z,3.20
2017-07-02T23:47:45.127Z,3.90
2017-07-02T23:50:13.433Z,3.73
2017-07-02T23:52:43.227Z,4.27
2017-07-02T23:55:11.575Z,4.00
2017-07-02T23:57:41.367Z,4.03
